Cardoso, Brazil
Current Conditions -  °F | °C
As of 1:00 PM on Saturday 25 Oct 2014 (Local Time) from SBSR Reporting Station
Overcast Overcast  
Wind Chill: 73°   Ceiling: 7000
Heat Index: 73°   Visibility: 5mi
Dew Point: 66°   Wind: 6mph
Humidity: 78%   Direction: 90°E
Pressure: 30.03"   Gusts: NA
Location:  20.08°S, 49.91°W
Report Text: SBSR 251500Z 09005KT 8000 SCT010 OVC070 23/19 Q1017
Loading
Personal Weather Stations






























Interactive Weather Map
Tropical Storm Tracking
New forecast layout! Learn more

10-Day Weather Forecast

Advertisements
Track Severe Weather on mobile